createdAt,value
2023-04-09T00:00:34.487Z,99.90
2023-04-09T00:03:02.685Z,99.90
2023-04-09T00:05:30.774Z,99.90
2023-04-09T00:07:58.864Z,99.90
2023-04-09T00:10:27.095Z,99.90
2023-04-09T00:12:55.334Z,99.90
2023-04-09T00:15:31.026Z,99.90
2023-04-09T00:18:00.333Z,99.90
2023-04-09T00:20:28.422Z,99.90
2023-04-09T00:22:56.562Z,99.90
2023-04-09T00:25:24.669Z,99.90
2023-04-09T00:27:52.741Z,99.90
2023-04-09T00:30:21.367Z,99.90
2023-04-09T00:32:51.015Z,99.90
2023-04-09T00:35:19.125Z,99.90
2023-04-09T00:37:47.348Z,99.90
2023-04-09T00:40:15.845Z,99.90
2023-04-09T00:42:43.924Z,99.90
2023-04-09T00:45:12.264Z,99.90
2023-04-09T00:47:43.154Z,99.90
2023-04-09T00:50:12.762Z,99.90
2023-04-09T00:52:40.973Z,99.90
2023-04-09T00:55:10.632Z,99.90
2023-04-09T00:57:38.726Z,99.90
2023-04-09T01:00:08.449Z,99.90
2023-04-09T01:02:36.873Z,99.90
2023-04-09T01:05:05.816Z,99.90
2023-04-09T01:07:48.847Z,99.90
2023-04-09T01:10:33.227Z,99.90
2023-04-09T01:13:08.311Z,99.90
2023-04-09T01:15:44.572Z,99.90
2023-04-09T01:18:20.154Z,99.90
2023-04-09T01:20:57.809Z,99.90
2023-04-09T01:23:36.515Z,99.90
2023-04-09T01:26:11.583Z,99.90
2023-04-09T01:28:54.252Z,99.90
2023-04-09T01:31:28.377Z,99.90
2023-04-09T01:33:57.765Z,99.90
2023-04-09T01:36:27.612Z,99.90
2023-04-09T01:38:57.973Z,99.90
2023-04-09T01:41:27.107Z,99.90
2023-04-09T01:43:57.374Z,99.90
2023-04-09T01:46:27.321Z,99.90
2023-04-09T01:48:56.827Z,99.90
2023-04-09T01:51:25.036Z,99.90
2023-04-09T01:53:53.125Z,99.90
2023-04-09T01:56:21.327Z,99.90
2023-04-09T01:58:49.519Z,99.90
2023-04-09T02:01:25.511Z,99.90
2023-04-09T02:03:57.728Z,99.90
2023-04-09T02:06:35.633Z,99.90
2023-04-09T02:09:06.282Z,99.90
2023-04-09T02:11:35.149Z,99.90
2023-04-09T02:14:05.367Z,99.90
2023-04-09T02:16:36.206Z,99.90
2023-04-09T02:19:04.269Z,99.90
2023-04-09T02:21:33.270Z,99.90
2023-04-09T02:24:01.529Z,99.90
2023-04-09T02:26:29.627Z,99.90
2023-04-09T02:28:59.547Z,99.90
2023-04-09T02:31:27.615Z,99.90
2023-04-09T02:33:57.041Z,99.90
2023-04-09T02:36:25.938Z,99.90
2023-04-09T02:38:54.117Z,99.90
2023-04-09T02:41:22.282Z,99.90
2023-04-09T02:43:50.318Z,99.90
2023-04-09T02:46:18.459Z,99.90
2023-04-09T02:48:46.585Z,99.90
2023-04-09T02:51:15.985Z,99.90
2023-04-09T02:53:45.560Z,99.90
2023-04-09T02:56:13.653Z,99.90
2023-04-09T02:58:41.762Z,99.90
2023-04-09T03:01:09.899Z,99.90
2023-04-09T03:03:40.084Z,99.90
2023-04-09T03:06:08.209Z,99.90
2023-04-09T03:08:37.630Z,99.90
2023-04-09T03:11:05.795Z,99.90
2023-04-09T03:13:33.823Z,99.90
2023-04-09T03:16:01.946Z,99.90
2023-04-09T03:18:30.104Z,99.90
2023-04-09T03:20:58.147Z,99.90
2023-04-09T03:23:27.937Z,99.90
2023-04-09T03:26:03.466Z,99.90
2023-04-09T03:28:36.097Z,99.90
2023-04-09T03:31:04.382Z,99.90
2023-04-09T03:33:36.842Z,99.90
2023-04-09T03:36:05.413Z,99.90
2023-04-09T03:38:55.425Z,99.90
2023-04-09T03:41:32.821Z,99.90
2023-04-09T03:44:04.559Z,99.90
2023-04-09T03:46:40.339Z,99.90
2023-04-09T03:49:10.293Z,99.90
2023-04-09T03:51:42.730Z,99.90
2023-04-09T03:54:11.035Z,99.90
2023-04-09T03:56:41.586Z,99.90
2023-04-09T03:59:13.241Z,99.90
2023-04-09T04:01:44.223Z,99.90
2023-04-09T04:04:12.361Z,99.90
2023-04-09T04:06:54.040Z,99.90
2023-04-09T04:09:34.685Z,99.90
2023-04-09T04:12:11.151Z,99.90
2023-04-09T04:15:09.273Z,99.90
2023-04-09T04:17:44.006Z,99.90
2023-04-09T04:20:24.353Z,99.90
2023-04-09T04:23:03.232Z,99.90
2023-04-09T04:25:32.004Z,99.90
2023-04-09T04:28:02.576Z,99.90
2023-04-09T04:30:38.481Z,99.90
2023-04-09T04:33:09.312Z,99.90
2023-04-09T04:35:44.885Z,99.90
2023-04-09T04:38:29.466Z,99.90
2023-04-09T04:40:59.615Z,99.90
2023-04-09T04:43:29.443Z,99.90
2023-04-09T04:46:00.228Z,99.90
2023-04-09T04:48:31.906Z,99.90
2023-04-09T04:51:01.535Z,99.90
2023-04-09T04:53:37.580Z,99.90
2023-04-09T04:56:14.462Z,99.90
2023-04-09T04:58:51.051Z,99.90
2023-04-09T05:01:21.242Z,99.90
2023-04-09T05:03:49.927Z,99.90
2023-04-09T05:06:32.272Z,99.90
2023-04-09T05:09:01.970Z,99.90
2023-04-09T05:11:38.344Z,99.90
2023-04-09T05:14:13.067Z,99.90
2023-04-09T05:16:41.479Z,99.90
2023-04-09T05:19:09.735Z,99.90
2023-04-09T05:21:39.075Z,99.90
2023-04-09T05:24:07.684Z,99.90
2023-04-09T05:26:36.252Z,99.90
2023-04-09T05:29:04.387Z,99.90
2023-04-09T05:31:36.222Z,99.90
2023-04-09T05:34:08.089Z,99.90
2023-04-09T05:36:42.958Z,99.90
2023-04-09T05:39:12.076Z,99.90
2023-04-09T05:41:40.691Z,99.90
2023-04-09T05:44:32.734Z,99.90
2023-04-09T05:47:08.072Z,99.90
2023-04-09T05:49:43.063Z,99.90
2023-04-09T05:52:16.574Z,99.90
2023-04-09T05:54:44.715Z,99.90
2023-04-09T05:57:16.471Z,99.90
2023-04-09T05:59:49.036Z,99.90
2023-04-09T06:02:18.503Z,99.90
2023-04-09T06:04:46.756Z,99.90
2023-04-09T06:07:16.422Z,99.90
2023-04-09T06:09:45.056Z,99.90
2023-04-09T06:12:13.072Z,99.90
2023-04-09T06:14:41.165Z,99.90
2023-04-09T06:17:09.345Z,99.90
2023-04-09T06:19:38.722Z,99.90
2023-04-09T06:22:07.372Z,99.90
2023-04-09T06:24:35.536Z,99.90
2023-04-09T06:27:03.550Z,99.90
2023-04-09T06:29:31.597Z,99.90
2023-04-09T06:31:59.640Z,99.90
2023-04-09T06:34:27.630Z,99.90
2023-04-09T06:36:56.961Z,99.90
2023-04-09T06:39:24.932Z,99.90
2023-04-09T06:41:53.236Z,99.90
2023-04-09T06:44:35.293Z,99.90
2023-04-09T06:47:03.294Z,99.90
2023-04-09T06:49:31.377Z,99.90
2023-04-09T06:52:01.352Z,99.90
2023-04-09T06:54:29.496Z,99.90
2023-04-09T06:56:57.563Z,99.90
2023-04-09T06:59:25.555Z,99.90
2023-04-09T07:01:54.724Z,99.90
2023-04-09T07:04:22.967Z,99.90
2023-04-09T07:06:51.552Z,99.90
2023-04-09T07:09:20.954Z,99.90
2023-04-09T07:11:48.953Z,99.90
2023-04-09T07:14:16.966Z,99.90
2023-04-09T07:16:46.600Z,99.90
2023-04-09T07:19:14.634Z,99.90
2023-04-09T07:21:42.697Z,99.90
2023-04-09T07:24:11.302Z,99.90
2023-04-09T07:26:41.342Z,99.90
2023-04-09T07:29:09.393Z,99.90
2023-04-09T07:31:37.428Z,99.90
2023-04-09T07:34:05.609Z,99.90
2023-04-09T07:36:33.645Z,99.90
2023-04-09T07:39:01.745Z,99.90
2023-04-09T07:41:29.896Z,99.90
2023-04-09T07:44:00.255Z,99.90
2023-04-09T07:46:28.363Z,99.90
2023-04-09T07:48:57.147Z,99.90
2023-04-09T07:51:26.874Z,99.90
2023-04-09T07:53:55.255Z,99.90
2023-04-09T07:56:23.333Z,99.90
2023-04-09T07:58:51.837Z,99.90
2023-04-09T08:01:24.637Z,99.90
2023-04-09T08:03:52.865Z,99.90
2023-04-09T08:06:21.009Z,99.90
2023-04-09T08:08:49.083Z,99.90
2023-04-09T08:11:18.437Z,99.90
2023-04-09T08:13:47.078Z,99.90
2023-04-09T08:16:15.496Z,99.90
2023-04-09T08:18:44.909Z,99.90
2023-04-09T08:21:12.923Z,99.90
2023-04-09T08:23:41.186Z,99.90
2023-04-09T08:26:09.241Z,99.90
2023-04-09T08:28:37.319Z,99.90
2023-04-09T08:31:05.393Z,99.90
2023-04-09T08:33:33.414Z,99.90
2023-04-09T08:36:03.524Z,99.90
2023-04-09T08:38:31.894Z,99.90
2023-04-09T08:40:59.913Z,99.90
2023-04-09T08:43:37.450Z,99.90
2023-04-09T08:46:12.854Z,99.90
2023-04-09T08:48:42.551Z,99.90
2023-04-09T08:51:14.338Z,99.90
2023-04-09T08:53:46.293Z,99.90
2023-04-09T08:56:15.760Z,99.90
2023-04-09T08:58:45.440Z,99.90
2023-04-09T09:01:21.462Z,99.90
2023-04-09T09:03:58.544Z,99.90
2023-04-09T09:06:31.974Z,99.90
2023-04-09T09:09:05.389Z,99.90
2023-04-09T09:11:33.705Z,99.90
2023-04-09T09:14:03.478Z,99.90
2023-04-09T09:16:33.225Z,99.90
2023-04-09T09:19:01.628Z,99.90
2023-04-09T09:21:31.377Z,99.90
2023-04-09T09:23:59.685Z,99.90
2023-04-09T09:26:30.030Z,99.90
2023-04-09T09:28:59.301Z,99.90
2023-04-09T09:31:27.482Z,99.90
2023-04-09T09:33:56.366Z,99.90
2023-04-09T09:36:36.755Z,99.90
2023-04-09T09:39:09.870Z,99.90
2023-04-09T09:41:38.242Z,99.90
2023-04-09T09:44:07.180Z,99.90
2023-04-09T09:46:37.292Z,99.90
2023-04-09T09:49:05.830Z,99.90
2023-04-09T09:51:37.932Z,99.90
2023-04-09T09:54:08.867Z,99.90
2023-04-09T09:56:39.550Z,99.90
2023-04-09T09:59:11.745Z,99.90
2023-04-09T10:01:41.322Z,99.90
2023-04-09T10:04:14.437Z,99.90
2023-04-09T10:06:46.010Z,99.90
2023-04-09T10:09:14.581Z,99.90
2023-04-09T10:11:45.524Z,99.90
2023-04-09T10:14:14.597Z,99.90
2023-04-09T10:16:42.948Z,99.90
2023-04-09T10:19:14.114Z,99.90
2023-04-09T10:21:53.437Z,99.90
2023-04-09T10:24:21.832Z,99.90
2023-04-09T10:26:50.395Z,99.90
2023-04-09T10:29:18.492Z,99.90
2023-04-09T10:31:48.481Z,99.90
2023-04-09T10:34:17.567Z,99.90
2023-04-09T10:36:51.602Z,99.90
2023-04-09T10:39:19.927Z,99.90
2023-04-09T10:41:50.046Z,99.90
2023-04-09T10:44:22.185Z,99.90
2023-04-09T10:46:51.262Z,99.90
2023-04-09T10:49:21.511Z,99.90
2023-04-09T10:51:52.924Z,99.90
2023-04-09T10:54:47.088Z,99.90
2023-04-09T10:57:17.826Z,99.80
2023-04-09T10:59:47.848Z,99.90
2023-04-09T11:02:55.902Z,99.70
2023-04-09T11:05:30.010Z,99.90
2023-04-09T11:08:05.930Z,99.70
2023-04-09T11:10:34.907Z,99.90
2023-04-09T11:13:03.391Z,99.90
2023-04-09T11:15:33.480Z,99.90
2023-04-09T11:18:02.270Z,99.90
2023-04-09T11:20:31.391Z,99.90
2023-04-09T11:23:01.613Z,99.90
2023-04-09T11:25:31.161Z,99.90
2023-04-09T11:27:59.546Z,99.90
2023-04-09T11:30:28.871Z,99.90
2023-04-09T11:32:57.007Z,99.90
2023-04-09T11:35:25.545Z,99.50
2023-04-09T11:37:54.131Z,99.80
2023-04-09T11:40:24.756Z,99.10
2023-04-09T11:42:54.206Z,99.10
2023-04-09T11:45:24.297Z,99.10
2023-04-09T11:47:53.601Z,99.20
2023-04-09T11:50:22.928Z,99.40
2023-04-09T11:52:52.395Z,99.60
2023-04-09T11:55:29.232Z,99.40
2023-04-09T11:58:00.926Z,99.60
2023-04-09T12:00:29.763Z,99.70
2023-04-09T12:03:02.455Z,99.70
2023-04-09T12:05:33.236Z,99.90
2023-04-09T12:08:03.166Z,99.80
2023-04-09T12:10:34.132Z,99.90
2023-04-09T12:13:04.029Z,99.90
2023-04-09T12:15:34.328Z,99.70
2023-04-09T12:18:02.485Z,99.60
2023-04-09T12:20:35.602Z,99.40
2023-04-09T12:23:05.770Z,99.40
2023-04-09T12:25:36.688Z,99.30
2023-04-09T12:28:05.683Z,99.50
2023-04-09T12:30:34.074Z,99.40
2023-04-09T12:33:03.601Z,99.20
2023-04-09T12:35:31.977Z,99.30
2023-04-09T12:38:00.618Z,99.20
2023-04-09T12:40:29.048Z,99.00
2023-04-09T12:42:58.458Z,98.60
2023-04-09T12:45:27.865Z,98.50
2023-04-09T12:47:56.008Z,98.00
2023-04-09T12:50:24.172Z,98.00
2023-04-09T12:52:52.206Z,98.30
2023-04-09T12:55:20.320Z,98.50
2023-04-09T12:57:51.287Z,98.40
2023-04-09T13:00:20.700Z,98.30
2023-04-09T13:02:49.013Z,98.30
2023-04-09T13:05:17.106Z,98.40
2023-04-09T13:07:45.668Z,98.50
2023-04-09T13:10:13.658Z,98.10
2023-04-09T13:12:41.683Z,98.50
2023-04-09T13:15:10.127Z,98.50
2023-04-09T13:17:39.498Z,98.10
2023-04-09T13:20:08.859Z,97.90
2023-04-09T13:22:37.113Z,98.30
2023-04-09T13:25:05.766Z,98.20
2023-04-09T13:27:33.806Z,97.80
2023-04-09T13:30:01.876Z,98.00
2023-04-09T13:32:30.070Z,98.20
2023-04-09T13:34:59.881Z,98.00
2023-04-09T13:37:28.031Z,98.10
2023-04-09T13:39:56.693Z,98.10
2023-04-09T13:42:24.800Z,98.00
2023-04-09T13:44:52.835Z,97.60
2023-04-09T13:47:21.762Z,97.30
2023-04-09T13:49:51.429Z,97.60
2023-04-09T13:52:20.810Z,97.50
2023-04-09T13:54:49.401Z,97.30
2023-04-09T13:57:17.728Z,97.20
2023-04-09T13:59:45.798Z,97.20
2023-04-09T14:02:14.089Z,97.20
2023-04-09T14:04:42.679Z,97.20
2023-04-09T14:07:10.849Z,97.30
2023-04-09T14:09:40.472Z,97.40
2023-04-09T14:12:08.523Z,97.30
2023-04-09T14:14:36.545Z,97.10
2023-04-09T14:17:04.599Z,97.20
2023-04-09T14:19:32.642Z,97.20
2023-04-09T14:22:00.813Z,97.10
2023-04-09T14:24:28.822Z,97.10
2023-04-09T14:26:59.428Z,97.20
2023-04-09T14:29:27.444Z,96.90
2023-04-09T14:31:57.162Z,96.70
2023-04-09T14:34:25.799Z,96.70
2023-04-09T14:36:53.831Z,96.40
2023-04-09T14:39:21.873Z,96.30
2023-04-09T14:41:49.899Z,96.30
2023-04-09T14:44:19.269Z,96.20
2023-04-09T14:46:47.453Z,96.30
2023-04-09T14:49:15.531Z,96.40
2023-04-09T14:51:43.647Z,96.10
2023-04-09T14:54:11.653Z,96.00
2023-04-09T14:56:39.661Z,95.90
2023-04-09T14:59:07.866Z,95.90
2023-04-09T15:01:37.266Z,95.60
2023-04-09T15:04:05.419Z,95.50
2023-04-09T15:06:33.509Z,95.40
2023-04-09T15:09:01.536Z,95.60
2023-04-09T15:11:29.551Z,95.50
2023-04-09T15:13:57.874Z,95.70
2023-04-09T15:16:27.981Z,95.80
2023-04-09T15:18:59.031Z,95.80
2023-04-09T15:21:27.704Z,96.00
2023-04-09T15:23:56.254Z,96.10
2023-04-09T15:26:24.291Z,96.10
2023-04-09T15:28:53.476Z,96.10
2023-04-09T15:31:21.696Z,96.00
2023-04-09T15:33:50.339Z,95.80
2023-04-09T15:36:19.802Z,95.90
2023-04-09T15:38:47.831Z,95.70
2023-04-09T15:41:16.959Z,95.70
2023-04-09T15:43:45.297Z,95.60
2023-04-09T15:46:14.131Z,95.70
2023-04-09T15:48:42.209Z,95.60
2023-04-09T15:51:10.503Z,95.50
2023-04-09T15:53:39.869Z,95.40
2023-04-09T15:56:10.284Z,95.40
2023-04-09T15:58:39.680Z,95.60
2023-04-09T16:01:08.491Z,95.20
2023-04-09T16:03:39.693Z,95.40
2023-04-09T16:06:09.072Z,95.40
2023-04-09T16:08:38.810Z,95.10
2023-04-09T16:11:08.200Z,95.10
2023-04-09T16:13:36.446Z,94.90
2023-04-09T16:16:04.832Z,94.80
2023-04-09T16:18:32.959Z,94.70
2023-04-09T16:21:01.025Z,94.60
2023-04-09T16:23:30.631Z,94.50
2023-04-09T16:26:00.626Z,94.50
2023-04-09T16:28:28.738Z,94.60
2023-04-09T16:30:56.834Z,94.80
2023-04-09T16:33:24.942Z,94.60
2023-04-09T16:35:53.044Z,95.00
2023-04-09T16:38:21.100Z,94.70
2023-04-09T16:40:49.148Z,94.90
2023-04-09T16:43:18.519Z,94.70
2023-04-09T16:45:46.615Z,94.40
2023-04-09T16:48:14.737Z,94.50
2023-04-09T16:50:42.846Z,94.50
2023-04-09T16:53:11.036Z,94.50
2023-04-09T16:55:39.077Z,94.70
2023-04-09T16:58:07.113Z,94.50
2023-04-09T17:00:36.529Z,94.20
2023-04-09T17:03:05.198Z,94.20
2023-04-09T17:05:33.783Z,94.10
2023-04-09T17:08:02.136Z,94.00
2023-04-09T17:10:30.583Z,94.00
2023-04-09T17:12:58.651Z,93.90
2023-04-09T17:15:27.241Z,93.60
2023-04-09T17:17:58.291Z,93.40
2023-04-09T17:20:26.910Z,93.60
2023-04-09T17:22:54.987Z,93.30
2023-04-09T17:25:23.407Z,93.30
2023-04-09T17:27:51.678Z,93.40
2023-04-09T17:30:20.857Z,93.30
2023-04-09T17:32:51.076Z,93.50
2023-04-09T17:35:20.685Z,93.50
2023-04-09T17:37:48.765Z,93.50
2023-04-09T17:40:18.644Z,93.20
2023-04-09T17:42:46.730Z,93.00
2023-04-09T17:45:14.837Z,92.80
2023-04-09T17:47:42.968Z,93.30
2023-04-09T17:50:11.398Z,93.40
2023-04-09T17:52:40.805Z,93.30
2023-04-09T17:55:11.614Z,93.90
2023-04-09T17:57:40.065Z,93.90
2023-04-09T18:00:09.601Z,94.20
2023-04-09T18:02:47.231Z,94.20
2023-04-09T18:05:15.758Z,94.50
2023-04-09T18:07:45.182Z,94.40
2023-04-09T18:10:13.578Z,94.60
2023-04-09T18:12:41.585Z,94.60
2023-04-09T18:15:10.433Z,94.90
2023-04-09T18:17:38.556Z,95.10
2023-04-09T18:20:07.496Z,95.10
2023-04-09T18:22:35.850Z,95.10
2023-04-09T18:25:05.999Z,95.30
2023-04-09T18:27:34.394Z,95.60
2023-04-09T18:30:02.743Z,95.90
2023-04-09T18:32:31.126Z,96.00
2023-04-09T18:34:59.365Z,96.20
2023-04-09T18:37:27.926Z,96.20
2023-04-09T18:39:56.120Z,96.30
2023-04-09T18:42:25.519Z,96.40
2023-04-09T18:44:54.119Z,96.30
2023-04-09T18:47:22.310Z,96.30
2023-04-09T18:49:50.417Z,96.50
2023-04-09T18:52:18.443Z,96.70
2023-04-09T18:54:46.541Z,96.40
2023-04-09T18:57:14.546Z,96.10
2023-04-09T18:59:45.596Z,96.40
2023-04-09T19:02:13.747Z,96.40
2023-04-09T19:04:42.066Z,96.50
2023-04-09T19:07:10.228Z,96.60
2023-04-09T19:09:38.564Z,96.80
2023-04-09T19:12:07.015Z,96.90
2023-04-09T19:14:36.372Z,97.00
2023-04-09T19:17:05.793Z,97.00
2023-04-09T19:19:33.904Z,96.80
2023-04-09T19:22:02.094Z,96.90
2023-04-09T19:24:30.097Z,97.00
2023-04-09T19:26:59.420Z,97.10
2023-04-09T19:29:27.471Z,97.00
2023-04-09T19:31:58.649Z,97.10
2023-04-09T19:34:28.115Z,97.20
2023-04-09T19:36:56.589Z,97.20
2023-04-09T19:39:24.673Z,97.00
2023-04-09T19:41:52.724Z,96.80
2023-04-09T19:44:21.117Z,96.80
2023-04-09T19:46:49.291Z,97.00
2023-04-09T19:49:17.377Z,97.10
2023-04-09T19:51:46.780Z,97.00
2023-04-09T19:54:16.507Z,97.10
2023-04-09T19:56:44.588Z,97.10
2023-04-09T19:59:12.662Z,96.90
2023-04-09T20:01:40.932Z,96.90
2023-04-09T20:04:09.239Z,96.80
2023-04-09T20:06:37.368Z,96.70
2023-04-09T20:09:07.125Z,96.80
2023-04-09T20:11:35.359Z,96.80
2023-04-09T20:14:03.739Z,97.00
2023-04-09T20:16:32.117Z,96.90
2023-04-09T20:19:00.350Z,96.90
2023-04-09T20:21:29.420Z,96.90
2023-04-09T20:23:57.491Z,97.00
2023-04-09T20:26:26.896Z,97.10
2023-04-09T20:28:55.101Z,97.10
2023-04-09T20:31:23.638Z,96.90
2023-04-09T20:33:51.699Z,96.80
2023-04-09T20:36:20.814Z,96.90
2023-04-09T20:38:49.440Z,97.10
2023-04-09T20:41:17.496Z,97.10
2023-04-09T20:43:46.904Z,97.10
2023-04-09T20:46:15.042Z,97.20
2023-04-09T20:48:43.265Z,97.20
2023-04-09T20:51:12.517Z,97.10
2023-04-09T20:53:40.557Z,97.20
2023-04-09T20:56:09.234Z,97.10
2023-04-09T20:58:37.714Z,97.20
2023-04-09T21:01:09.716Z,97.20
2023-04-09T21:03:39.058Z,97.30
2023-04-09T21:06:08.176Z,97.30
2023-04-09T21:08:36.427Z,97.30
2023-04-09T21:11:04.641Z,97.40
2023-04-09T21:13:40.386Z,97.50
2023-04-09T21:16:16.528Z,97.30
2023-04-09T21:18:45.004Z,97.40
2023-04-09T21:21:14.126Z,97.30
2023-04-09T21:23:42.458Z,97.10
2023-04-09T21:26:11.721Z,97.20
2023-04-09T21:28:39.890Z,97.10
2023-04-09T21:31:08.040Z,97.30
2023-04-09T21:33:39.135Z,97.20
2023-04-09T21:36:08.318Z,97.20
2023-04-09T21:38:36.677Z,97.30
2023-04-09T21:41:04.988Z,97.30
2023-04-09T21:43:33.015Z,97.30
2023-04-09T21:46:01.086Z,97.20
2023-04-09T21:48:30.581Z,97.20
2023-04-09T21:51:00.034Z,97.30
2023-04-09T21:53:28.141Z,97.20
2023-04-09T21:55:56.256Z,97.40
2023-04-09T21:58:24.349Z,97.30
2023-04-09T22:00:53.046Z,97.40
2023-04-09T22:03:21.673Z,97.60
2023-04-09T22:05:49.986Z,97.40
2023-04-09T22:08:19.376Z,97.40
2023-04-09T22:10:47.666Z,97.40
2023-04-09T22:13:15.696Z,97.20
2023-04-09T22:15:43.741Z,97.10
2023-04-09T22:18:11.843Z,97.10
2023-04-09T22:20:39.894Z,97.10
2023-04-09T22:23:09.627Z,97.10
2023-04-09T22:25:39.024Z,97.20
2023-04-09T22:28:07.260Z,97.10
2023-04-09T22:30:35.386Z,97.00
2023-04-09T22:33:03.543Z,96.80
2023-04-09T22:35:32.114Z,97.00
2023-04-09T22:38:00.377Z,97.00
2023-04-09T22:40:28.428Z,97.00
2023-04-09T22:42:57.821Z,96.70
2023-04-09T22:45:27.769Z,97.20
2023-04-09T22:47:56.865Z,97.10
2023-04-09T22:50:27.808Z,97.00
2023-04-09T22:52:56.042Z,97.10
2023-04-09T22:55:24.326Z,97.10
2023-04-09T22:57:52.366Z,97.00
2023-04-09T23:00:22.053Z,97.00
2023-04-09T23:02:50.990Z,97.20
2023-04-09T23:05:19.259Z,97.00
2023-04-09T23:07:48.159Z,97.00
2023-04-09T23:10:17.433Z,97.00
2023-04-09T23:12:45.603Z,97.20
2023-04-09T23:15:13.752Z,97.10
2023-04-09T23:17:43.207Z,97.00
2023-04-09T23:20:14.599Z,97.10
2023-04-09T23:22:42.814Z,97.20
2023-04-09T23:25:11.046Z,97.20
2023-04-09T23:27:38.957Z,97.00
2023-04-09T23:30:08.680Z,97.10
2023-04-09T23:32:36.945Z,97.10
2023-04-09T23:35:07.124Z,97.00
2023-04-09T23:37:35.109Z,97.00
2023-04-09T23:40:03.779Z,97.60
2023-04-09T23:42:33.844Z,97.60
2023-04-09T23:45:03.959Z,97.70
2023-04-09T23:47:33.402Z,97.70
2023-04-09T23:50:04.640Z,97.70
2023-04-09T23:52:35.056Z,97.70
2023-04-09T23:55:03.387Z,97.80
2023-04-09T23:57:31.678Z,97.70
2023-04-09T23:59:59.738Z,97.70
